sensor_id;sensor_type;location;lat;lon;timestamp;temperature;humidity
12233;DHT22;6179;51.748;8.728;2023-05-14T00:05:57;11.70;95.10
12233;DHT22;6179;51.748;8.728;2023-05-14T00:11:57;11.70;94.90
12233;DHT22;6179;51.748;8.728;2023-05-14T00:17:58;11.60;95.40
12233;DHT22;6179;51.748;8.728;2023-05-14T00:23:59;11.70;95.30
12233;DHT22;6179;51.748;8.728;2023-05-14T00:29:59;11.40;96.20
12233;DHT22;6179;51.748;8.728;2023-05-14T00:36:00;11.40;96.60
12233;DHT22;6179;51.748;8.728;2023-05-14T00:42:01;11.30;97.00
12233;DHT22;6179;51.748;8.728;2023-05-14T00:48:01;11.40;96.70
12233;DHT22;6179;51.748;8.728;2023-05-14T00:54:03;11.90;94.50
12233;DHT22;6179;51.748;8.728;2023-05-14T01:00:04;12.00;94.40
12233;DHT22;6179;51.748;8.728;2023-05-14T01:06:20;11.80;94.90
12233;DHT22;6179;51.748;8.728;2023-05-14T01:12:33;11.40;96.40
12233;DHT22;6179;51.748;8.728;2023-05-14T01:18:37;10.90;97.90
12233;DHT22;6179;51.748;8.728;2023-05-14T01:24:40;10.80;98.30
12233;DHT22;6179;51.748;8.728;2023-05-14T01:30:56;10.70;98.30
12233;DHT22;6179;51.748;8.728;2023-05-14T01:36:58;10.70;98.30
12233;DHT22;6179;51.748;8.728;2023-05-14T01:42:59;10.60;98.30
12233;DHT22;6179;51.748;8.728;2023-05-14T01:49:00;10.60;98.30
12233;DHT22;6179;51.748;8.728;2023-05-14T01:55:01;10.60;98.30
12233;DHT22;6179;51.748;8.728;2023-05-14T02:01:02;10.60;98.30
12233;DHT22;6179;51.748;8.728;2023-05-14T02:07:03;10.50;98.30
12233;DHT22;6179;51.748;8.728;2023-05-14T02:13:03;10.30;98.30
12233;DHT22;6179;51.748;8.728;2023-05-14T02:19:04;10.30;98.30
12233;DHT22;6179;51.748;8.728;2023-05-14T02:25:05;10.30;98.30
12233;DHT22;6179;51.748;8.728;2023-05-14T02:31:06;10.30;98.30
12233;DHT22;6179;51.748;8.728;2023-05-14T02:37:06;10.30;98.30
12233;DHT22;6179;51.748;8.728;2023-05-14T02:43:07;10.00;98.30
12233;DHT22;6179;51.748;8.728;2023-05-14T02:49:07;10.20;98.30
12233;DHT22;6179;51.748;8.728;2023-05-14T02:55:08;10.10;98.30
12233;DHT22;6179;51.748;8.728;2023-05-14T03:01:09;9.80;98.30
12233;DHT22;6179;51.748;8.728;2023-05-14T03:07:10;9.80;98.30
12233;DHT22;6179;51.748;8.728;2023-05-14T03:13:10;9.70;98.30
12233;DHT22;6179;51.748;8.728;2023-05-14T03:19:11;9.80;98.30
12233;DHT22;6179;51.748;8.728;2023-05-14T03:25:12;10.00;98.30
12233;DHT22;6179;51.748;8.728;2023-05-14T03:31:12;9.70;98.30
12233;DHT22;6179;51.748;8.728;2023-05-14T03:37:13;9.60;98.30
12233;DHT22;6179;51.748;8.728;2023-05-14T03:43:13;9.60;98.30
12233;DHT22;6179;51.748;8.728;2023-05-14T03:49:15;9.90;98.30
12233;DHT22;6179;51.748;8.728;2023-05-14T03:55:16;9.80;98.30
12233;DHT22;6179;51.748;8.728;2023-05-14T04:01:16;9.90;98.30
12233;DHT22;6179;51.748;8.728;2023-05-14T04:07:17;10.10;98.30
12233;DHT22;6179;51.748;8.728;2023-05-14T04:13:18;9.90;98.30
12233;DHT22;6179;51.748;8.728;2023-05-14T04:19:18;9.90;98.30
12233;DHT22;6179;51.748;8.728;2023-05-14T04:25:19;10.20;98.30
12233;DHT22;6179;51.748;8.728;2023-05-14T04:31:20;10.30;98.30
12233;DHT22;6179;51.748;8.728;2023-05-14T04:37:21;10.10;98.30
12233;DHT22;6179;51.748;8.728;2023-05-14T04:43:22;10.10;98.30
12233;DHT22;6179;51.748;8.728;2023-05-14T04:49:23;10.10;98.30
12233;DHT22;6179;51.748;8.728;2023-05-14T04:55:23;10.40;98.30
12233;DHT22;6179;51.748;8.728;2023-05-14T05:01:24;10.60;98.30
12233;DHT22;6179;51.748;8.728;2023-05-14T05:07:24;10.80;98.30
12233;DHT22;6179;51.748;8.728;2023-05-14T05:13:25;11.10;98.30
12233;DHT22;6179;51.748;8.728;2023-05-14T05:19:26;11.40;98.30
12233;DHT22;6179;51.748;8.728;2023-05-14T05:25:26;11.80;98.30
12233;DHT22;6179;51.748;8.728;2023-05-14T05:31:27;12.10;98.30
12233;DHT22;6179;51.748;8.728;2023-05-14T05:37:29;12.60;98.30
12233;DHT22;6179;51.748;8.728;2023-05-14T05:43:30;12.90;97.20
12233;DHT22;6179;51.748;8.728;2023-05-14T05:49:32;13.30;96.50
12233;DHT22;6179;51.748;8.728;2023-05-14T05:55:33;13.70;95.60
12233;DHT22;6179;51.748;8.728;2023-05-14T06:01:34;14.10;94.20
12233;DHT22;6179;51.748;8.728;2023-05-14T06:07:35;14.30;92.50
12233;DHT22;6179;51.748;8.728;2023-05-14T06:13:35;14.60;92.30
12233;DHT22;6179;51.748;8.728;2023-05-14T06:19:36;15.30;89.10
12233;DHT22;6179;51.748;8.728;2023-05-14T06:25:37;15.50;89.60
12233;DHT22;6179;51.748;8.728;2023-05-14T06:31:37;15.90;88.40
12233;DHT22;6179;51.748;8.728;2023-05-14T06:37:38;16.10;88.40
12233;DHT22;6179;51.748;8.728;2023-05-14T06:43:38;16.60;85.50
12233;DHT22;6179;51.748;8.728;2023-05-14T06:49:39;16.40;87.60
12233;DHT22;6179;51.748;8.728;2023-05-14T06:55:40;16.70;86.60
12233;DHT22;6179;51.748;8.728;2023-05-14T07:01:41;17.10;85.70
12233;DHT22;6179;51.748;8.728;2023-05-14T07:07:41;17.30;83.30
12233;DHT22;6179;51.748;8.728;2023-05-14T07:13:42;17.40;85.60
12233;DHT22;6179;51.748;8.728;2023-05-14T07:19:42;17.60;82.50
12233;DHT22;6179;51.748;8.728;2023-05-14T07:25:44;17.60;82.00
12233;DHT22;6179;51.748;8.728;2023-05-14T07:31:45;17.70;84.30
12233;DHT22;6179;51.748;8.728;2023-05-14T07:37:46;17.90;87.50
12233;DHT22;6179;51.748;8.728;2023-05-14T07:43:46;17.80;81.30
12233;DHT22;6179;51.748;8.728;2023-05-14T07:49:47;17.80;80.80
12233;DHT22;6179;51.748;8.728;2023-05-14T07:55:48;17.40;84.50
12233;DHT22;6179;51.748;8.728;2023-05-14T08:01:48;17.70;83.90
12233;DHT22;6179;51.748;8.728;2023-05-14T08:07:49;18.20;83.00
12233;DHT22;6179;51.748;8.728;2023-05-14T08:13:50;18.40;80.30
12233;DHT22;6179;51.748;8.728;2023-05-14T08:19:51;18.50;80.50
12233;DHT22;6179;51.748;8.728;2023-05-14T08:25:52;18.30;79.60
12233;DHT22;6179;51.748;8.728;2023-05-14T08:31:53;18.20;79.00
12233;DHT22;6179;51.748;8.728;2023-05-14T08:37:53;17.60;80.60
12233;DHT22;6179;51.748;8.728;2023-05-14T08:44:07;17.80;81.40
12233;DHT22;6179;51.748;8.728;2023-05-14T08:50:11;18.30;79.10
12233;DHT22;6179;51.748;8.728;2023-05-14T08:56:12;18.60;78.20
12233;DHT22;6179;51.748;8.728;2023-05-14T09:02:15;18.50;78.10
12233;DHT22;6179;51.748;8.728;2023-05-14T09:08:16;18.10;78.10
12233;DHT22;6179;51.748;8.728;2023-05-14T09:14:17;18.40;76.90
12233;DHT22;6179;51.748;8.728;2023-05-14T09:20:18;18.70;76.80
12233;DHT22;6179;51.748;8.728;2023-05-14T09:26:23;18.80;75.20
12233;DHT22;6179;51.748;8.728;2023-05-14T09:32:24;19.00;75.60
12233;DHT22;6179;51.748;8.728;2023-05-14T09:38:32;19.20;75.20
12233;DHT22;6179;51.748;8.728;2023-05-14T09:44:33;19.60;77.90
12233;DHT22;6179;51.748;8.728;2023-05-14T09:50:42;19.80;74.00
12233;DHT22;6179;51.748;8.728;2023-05-14T09:56:43;20.40;71.00
12233;DHT22;6179;51.748;8.728;2023-05-14T10:02:44;20.70;71.00
12233;DHT22;6179;51.748;8.728;2023-05-14T10:08:48;20.40;69.20
12233;DHT22;6179;51.748;8.728;2023-05-14T10:14:49;21.10;66.50
12233;DHT22;6179;51.748;8.728;2023-05-14T10:21:05;20.80;70.80
12233;DHT22;6179;51.748;8.728;2023-05-14T10:27:07;20.40;69.40
12233;DHT22;6179;51.748;8.728;2023-05-14T10:33:10;20.10;69.20
12233;DHT22;6179;51.748;8.728;2023-05-14T10:39:11;20.40;67.50
12233;DHT22;6179;51.748;8.728;2023-05-14T10:45:14;20.50;72.40
12233;DHT22;6179;51.748;8.728;2023-05-14T10:51:15;21.40;69.40
12233;DHT22;6179;51.748;8.728;2023-05-14T10:57:18;21.10;66.00
12233;DHT22;6179;51.748;8.728;2023-05-14T11:03:20;21.30;68.10
12233;DHT22;6179;51.748;8.728;2023-05-14T11:09:20;21.40;67.90
12233;DHT22;6179;51.748;8.728;2023-05-14T11:15:24;21.00;69.90
12233;DHT22;6179;51.748;8.728;2023-05-14T11:21:25;21.60;64.20
12233;DHT22;6179;51.748;8.728;2023-05-14T11:27:26;21.80;66.20
12233;DHT22;6179;51.748;8.728;2023-05-14T11:33:28;21.50;66.90
12233;DHT22;6179;51.748;8.728;2023-05-14T11:39:32;21.10;67.50
12233;DHT22;6179;51.748;8.728;2023-05-14T11:45:33;21.80;64.60
12233;DHT22;6179;51.748;8.728;2023-05-14T11:51:35;22.20;67.20
12233;DHT22;6179;51.748;8.728;2023-05-14T11:57:36;21.90;66.30
12233;DHT22;6179;51.748;8.728;2023-05-14T12:03:37;22.20;62.30
12233;DHT22;6179;51.748;8.728;2023-05-14T12:09:48;21.00;66.00
12233;DHT22;6179;51.748;8.728;2023-05-14T12:15:59;20.90;68.90
12233;DHT22;6179;51.748;8.728;2023-05-14T12:22:01;21.80;70.70
12233;DHT22;6179;51.748;8.728;2023-05-14T12:28:13;22.70;66.60
12233;DHT22;6179;51.748;8.728;2023-05-14T12:34:14;22.60;63.00
12233;DHT22;6179;51.748;8.728;2023-05-14T12:40:15;22.20;64.00
12233;DHT22;6179;51.748;8.728;2023-05-14T12:46:16;22.20;65.20
12233;DHT22;6179;51.748;8.728;2023-05-14T12:52:16;22.70;65.00
12233;DHT22;6179;51.748;8.728;2023-05-14T12:58:17;22.30;59.10
12233;DHT22;6179;51.748;8.728;2023-05-14T13:04:18;22.30;60.30
12233;DHT22;6179;51.748;8.728;2023-05-14T13:10:18;22.30;59.70
12233;DHT22;6179;51.748;8.728;2023-05-14T13:16:19;21.70;62.60
12233;DHT22;6179;51.748;8.728;2023-05-14T13:22:20;22.30;64.10
12233;DHT22;6179;51.748;8.728;2023-05-14T13:28:20;22.00;64.30
12233;DHT22;6179;51.748;8.728;2023-05-14T13:34:21;21.60;64.00
12233;DHT22;6179;51.748;8.728;2023-05-14T13:40:21;21.40;64.00
12233;DHT22;6179;51.748;8.728;2023-05-14T13:46:22;21.60;62.80
12233;DHT22;6179;51.748;8.728;2023-05-14T13:52:23;21.50;62.90
12233;DHT22;6179;51.748;8.728;2023-05-14T13:58:24;21.30;63.70
12233;DHT22;6179;51.748;8.728;2023-05-14T14:04:25;21.60;65.80
12233;DHT22;6179;51.748;8.728;2023-05-14T14:10:28;20.60;67.80
12233;DHT22;6179;51.748;8.728;2023-05-14T14:16:29;19.20;79.70
12233;DHT22;6179;51.748;8.728;2023-05-14T14:22:29;17.40;89.40
12233;DHT22;6179;51.748;8.728;2023-05-14T14:28:30;16.90;94.20
12233;DHT22;6179;51.748;8.728;2023-05-14T14:34:31;16.20;97.50
12233;DHT22;6179;51.748;8.728;2023-05-14T14:40:32;15.20;98.30
12233;DHT22;6179;51.748;8.728;2023-05-14T14:46:33;15.20;98.30
12233;DHT22;6179;51.748;8.728;2023-05-14T14:52:34;15.90;98.30
12233;DHT22;6179;51.748;8.728;2023-05-14T14:58:35;15.90;98.30
12233;DHT22;6179;51.748;8.728;2023-05-14T15:04:36;16.10;97.20
12233;DHT22;6179;51.748;8.728;2023-05-14T15:10:38;16.00;97.30
12233;DHT22;6179;51.748;8.728;2023-05-14T15:16:41;16.10;98.30
12233;DHT22;6179;51.748;8.728;2023-05-14T15:22:42;16.40;98.30
12233;DHT22;6179;51.748;8.728;2023-05-14T15:28:43;16.50;98.30
12233;DHT22;6179;51.748;8.728;2023-05-14T15:34:43;16.40;98.30
12233;DHT22;6179;51.748;8.728;2023-05-14T15:40:44;16.50;98.30
12233;DHT22;6179;51.748;8.728;2023-05-14T15:46:45;16.50;98.30
12233;DHT22;6179;51.748;8.728;2023-05-14T15:52:46;16.80;98.30
12233;DHT22;6179;51.748;8.728;2023-05-14T15:58:47;17.20;98.30
12233;DHT22;6179;51.748;8.728;2023-05-14T16:04:48;17.70;98.30
12233;DHT22;6179;51.748;8.728;2023-05-14T16:10:49;18.30;92.20
12233;DHT22;6179;51.748;8.728;2023-05-14T16:16:49;18.10;92.70
12233;DHT22;6179;51.748;8.728;2023-05-14T16:22:50;17.70;93.20
12233;DHT22;6179;51.748;8.728;2023-05-14T16:28:51;17.60;90.90
12233;DHT22;6179;51.748;8.728;2023-05-14T16:34:51;18.10;92.60
12233;DHT22;6179;51.748;8.728;2023-05-14T16:40:52;17.90;97.00
12233;DHT22;6179;51.748;8.728;2023-05-14T16:46:53;18.20;92.30
12233;DHT22;6179;51.748;8.728;2023-05-14T16:52:53;18.50;90.70
12233;DHT22;6179;51.748;8.728;2023-05-14T16:58:54;18.60;90.50
12233;DHT22;6179;51.748;8.728;2023-05-14T17:04:54;18.70;91.60
12233;DHT22;6179;51.748;8.728;2023-05-14T17:10:55;18.90;91.10
12233;DHT22;6179;51.748;8.728;2023-05-14T17:16:56;19.00;89.50
12233;DHT22;6179;51.748;8.728;2023-05-14T17:22:56;18.80;89.20
12233;DHT22;6179;51.748;8.728;2023-05-14T17:28:57;18.90;88.20
12233;DHT22;6179;51.748;8.728;2023-05-14T17:34:58;18.90;88.40
12233;DHT22;6179;51.748;8.728;2023-05-14T17:40:58;18.80;90.30
12233;DHT22;6179;51.748;8.728;2023-05-14T17:46:59;18.60;93.50
12233;DHT22;6179;51.748;8.728;2023-05-14T17:53:00;18.60;90.90
12233;DHT22;6179;51.748;8.728;2023-05-14T17:59:00;18.50;91.60
12233;DHT22;6179;51.748;8.728;2023-05-14T18:05:01;18.20;92.00
12233;DHT22;6179;51.748;8.728;2023-05-14T18:11:02;18.00;91.60
12233;DHT22;6179;51.748;8.728;2023-05-14T18:17:03;17.60;94.10
12233;DHT22;6179;51.748;8.728;2023-05-14T18:23:03;17.30;95.90
12233;DHT22;6179;51.748;8.728;2023-05-14T18:29:04;17.30;94.40
12233;DHT22;6179;51.748;8.728;2023-05-14T18:35:05;17.10;96.10
12233;DHT22;6179;51.748;8.728;2023-05-14T18:41:05;16.80;96.90
12233;DHT22;6179;51.748;8.728;2023-05-14T18:47:06;16.80;96.70
12233;DHT22;6179;51.748;8.728;2023-05-14T18:53:07;16.60;97.30
12233;DHT22;6179;51.748;8.728;2023-05-14T18:59:08;16.70;96.20
12233;DHT22;6179;51.748;8.728;2023-05-14T19:05:09;16.40;97.20
12233;DHT22;6179;51.748;8.728;2023-05-14T19:11:09;16.10;98.30
12233;DHT22;6179;51.748;8.728;2023-05-14T19:17:10;15.80;98.30
12233;DHT22;6179;51.748;8.728;2023-05-14T19:23:11;15.70;98.30
12233;DHT22;6179;51.748;8.728;2023-05-14T19:29:12;15.90;97.80
12233;DHT22;6179;51.748;8.728;2023-05-14T19:35:12;15.50;98.30
12233;DHT22;6179;51.748;8.728;2023-05-14T19:41:13;15.20;98.30
12233;DHT22;6179;51.748;8.728;2023-05-14T19:47:14;15.10;98.30
12233;DHT22;6179;51.748;8.728;2023-05-14T19:53:14;15.40;98.30
12233;DHT22;6179;51.748;8.728;2023-05-14T19:59:15;15.60;98.30
12233;DHT22;6179;51.748;8.728;2023-05-14T20:05:16;15.40;98.30
12233;DHT22;6179;51.748;8.728;2023-05-14T20:11:17;15.10;98.30
12233;DHT22;6179;51.748;8.728;2023-05-14T20:17:18;14.90;98.30
12233;DHT22;6179;51.748;8.728;2023-05-14T20:23:20;14.80;98.30
12233;DHT22;6179;51.748;8.728;2023-05-14T20:29:21;14.70;98.30
12233;DHT22;6179;51.748;8.728;2023-05-14T20:35:21;14.50;98.30
12233;DHT22;6179;51.748;8.728;2023-05-14T20:41:22;14.90;98.30
12233;DHT22;6179;51.748;8.728;2023-05-14T20:47:24;14.40;98.30
12233;DHT22;6179;51.748;8.728;2023-05-14T20:53:25;14.10;98.30
12233;DHT22;6179;51.748;8.728;2023-05-14T20:59:28;13.90;98.30
12233;DHT22;6179;51.748;8.728;2023-05-14T21:05:28;13.90;98.30
12233;DHT22;6179;51.748;8.728;2023-05-14T21:11:29;14.20;98.30
12233;DHT22;6179;51.748;8.728;2023-05-14T21:17:30;14.00;98.30
12233;DHT22;6179;51.748;8.728;2023-05-14T21:23:30;14.00;98.30
12233;DHT22;6179;51.748;8.728;2023-05-14T21:29:31;14.20;98.30
12233;DHT22;6179;51.748;8.728;2023-05-14T21:35:31;14.00;98.30
12233;DHT22;6179;51.748;8.728;2023-05-14T21:41:32;13.70;98.30
12233;DHT22;6179;51.748;8.728;2023-05-14T21:47:33;13.70;98.30
12233;DHT22;6179;51.748;8.728;2023-05-14T21:53:33;13.60;98.30
12233;DHT22;6179;51.748;8.728;2023-05-14T21:59:35;13.70;98.30
12233;DHT22;6179;51.748;8.728;2023-05-14T22:05:36;13.90;98.30
12233;DHT22;6179;51.748;8.728;2023-05-14T22:11:36;13.90;98.30
12233;DHT22;6179;51.748;8.728;2023-05-14T22:17:37;13.40;98.30
12233;DHT22;6179;51.748;8.728;2023-05-14T22:23:38;13.00;98.30
12233;DHT22;6179;51.748;8.728;2023-05-14T22:29:39;13.10;98.30
12233;DHT22;6179;51.748;8.728;2023-05-14T22:35:40;13.00;98.30
12233;DHT22;6179;51.748;8.728;2023-05-14T22:41:40;12.60;98.30
12233;DHT22;6179;51.748;8.728;2023-05-14T22:47:41;12.40;98.30
12233;DHT22;6179;51.748;8.728;2023-05-14T22:53:42;12.70;98.30
12233;DHT22;6179;51.748;8.728;2023-05-14T22:59:42;12.50;98.30
12233;DHT22;6179;51.748;8.728;2023-05-14T23:05:43;12.20;98.30
12233;DHT22;6179;51.748;8.728;2023-05-14T23:11:44;11.90;98.30
12233;DHT22;6179;51.748;8.728;2023-05-14T23:17:45;11.70;98.30
12233;DHT22;6179;51.748;8.728;2023-05-14T23:23:46;11.70;98.30
12233;DHT22;6179;51.748;8.728;2023-05-14T23:29:47;12.00;98.30
12233;DHT22;6179;51.748;8.728;2023-05-14T23:35:48;11.50;98.30
12233;DHT22;6179;51.748;8.728;2023-05-14T23:41:49;11.20;98.30
12233;DHT22;6179;51.748;8.728;2023-05-14T23:47:50;11.40;98.30
12233;DHT22;6179;51.748;8.728;2023-05-14T23:53:50;11.00;98.30
12233;DHT22;6179;51.748;8.728;2023-05-14T23:59:55;11.00;98.30
